sensor_id;sensor_type;location;lat;lon;timestamp;temperature;humidity
19864;DHT22;10094;48.820;9.226;2022-07-01T00:01:38;16.80;99.90
19864;DHT22;10094;48.820;9.226;2022-07-01T00:08:24;17.10;99.90
19864;DHT22;10094;48.820;9.226;2022-07-01T00:15:06;17.10;99.90
19864;DHT22;10094;48.820;9.226;2022-07-01T00:21:50;17.20;99.90
19864;DHT22;10094;48.820;9.226;2022-07-01T00:28:33;17.30;99.90
19864;DHT22;10094;48.820;9.226;2022-07-01T00:35:15;17.20;99.90
19864;DHT22;10094;48.820;9.226;2022-07-01T00:41:59;17.20;99.90
19864;DHT22;10094;48.820;9.226;2022-07-01T00:48:43;17.20;99.90
19864;DHT22;10094;48.820;9.226;2022-07-01T00:55:26;17.20;99.90
19864;DHT22;10094;48.820;9.226;2022-07-01T01:02:09;16.80;99.90
19864;DHT22;10094;48.820;9.226;2022-07-01T01:08:52;16.80;99.90
19864;DHT22;10094;48.820;9.226;2022-07-01T01:15:34;16.80;99.90
19864;DHT22;10094;48.820;9.226;2022-07-01T01:22:18;16.90;99.90
19864;DHT22;10094;48.820;9.226;2022-07-01T01:29:01;17.00;99.90
19864;DHT22;10094;48.820;9.226;2022-07-01T01:35:43;16.90;99.90
19864;DHT22;10094;48.820;9.226;2022-07-01T01:42:26;16.90;99.90
19864;DHT22;10094;48.820;9.226;2022-07-01T01:49:09;16.70;99.90
19864;DHT22;10094;48.820;9.226;2022-07-01T01:55:51;16.50;99.90
19864;DHT22;10094;48.820;9.226;2022-07-01T02:02:33;16.30;99.90
19864;DHT22;10094;48.820;9.226;2022-07-01T02:09:18;16.20;99.90
19864;DHT22;10094;48.820;9.226;2022-07-01T02:16:01;16.00;99.90
19864;DHT22;10094;48.820;9.226;2022-07-01T02:22:45;15.90;99.90
19864;DHT22;10094;48.820;9.226;2022-07-01T02:29:27;16.00;99.90
19864;DHT22;10094;48.820;9.226;2022-07-01T02:36:09;16.10;99.90
19864;DHT22;10094;48.820;9.226;2022-07-01T02:42:52;16.20;99.90
19864;DHT22;10094;48.820;9.226;2022-07-01T02:49:35;16.20;99.90
19864;DHT22;10094;48.820;9.226;2022-07-01T02:56:17;16.20;99.90
19864;DHT22;10094;48.820;9.226;2022-07-01T03:03:00;16.30;99.90
19864;DHT22;10094;48.820;9.226;2022-07-01T03:09:43;16.20;99.90
19864;DHT22;10094;48.820;9.226;2022-07-01T03:16:26;16.20;99.90
19864;DHT22;10094;48.820;9.226;2022-07-01T03:23:08;16.20;99.90
19864;DHT22;10094;48.820;9.226;2022-07-01T03:29:51;16.30;99.90
19864;DHT22;10094;48.820;9.226;2022-07-01T03:36:33;16.30;99.90
19864;DHT22;10094;48.820;9.226;2022-07-01T03:43:15;16.20;99.90
19864;DHT22;10094;48.820;9.226;2022-07-01T03:50:03;16.10;99.90
19864;DHT22;10094;48.820;9.226;2022-07-01T03:56:46;16.20;99.90
19864;DHT22;10094;48.820;9.226;2022-07-01T04:03:28;16.30;99.90
19864;DHT22;10094;48.820;9.226;2022-07-01T04:10:12;16.40;99.90
19864;DHT22;10094;48.820;9.226;2022-07-01T04:16:54;16.30;99.90
19864;DHT22;10094;48.820;9.226;2022-07-01T04:23:37;16.20;99.90
19864;DHT22;10094;48.820;9.226;2022-07-01T04:30:20;16.10;99.90
19864;DHT22;10094;48.820;9.226;2022-07-01T04:37:03;16.20;99.90
19864;DHT22;10094;48.820;9.226;2022-07-01T04:43:45;16.30;99.90
19864;DHT22;10094;48.820;9.226;2022-07-01T04:50:27;16.30;99.90
19864;DHT22;10094;48.820;9.226;2022-07-01T04:57:10;16.20;99.90
19864;DHT22;10094;48.820;9.226;2022-07-01T05:03:52;16.20;99.90
19864;DHT22;10094;48.820;9.226;2022-07-01T05:10:35;16.30;99.90
19864;DHT22;10094;48.820;9.226;2022-07-01T05:17:17;16.10;99.90
19864;DHT22;10094;48.820;9.226;2022-07-01T05:24:00;16.30;99.90
19864;DHT22;10094;48.820;9.226;2022-07-01T05:30:42;16.10;99.90
19864;DHT22;10094;48.820;9.226;2022-07-01T05:37:25;16.00;99.90
19864;DHT22;10094;48.820;9.226;2022-07-01T05:44:07;15.50;99.90
19864;DHT22;10094;48.820;9.226;2022-07-01T05:50:50;15.40;99.90
19864;DHT22;10094;48.820;9.226;2022-07-01T05:57:34;15.50;99.90
19864;DHT22;10094;48.820;9.226;2022-07-01T06:04:17;15.70;99.90
19864;DHT22;10094;48.820;9.226;2022-07-01T06:11:00;15.90;99.90
19864;DHT22;10094;48.820;9.226;2022-07-01T06:17:42;15.80;99.90
19864;DHT22;10094;48.820;9.226;2022-07-01T06:24:25;15.70;99.90
19864;DHT22;10094;48.820;9.226;2022-07-01T06:31:07;15.90;99.90
19864;DHT22;10094;48.820;9.226;2022-07-01T06:37:51;16.00;99.90
19864;DHT22;10094;48.820;9.226;2022-07-01T06:44:40;16.20;99.90
19864;DHT22;10094;48.820;9.226;2022-07-01T06:51:23;16.20;99.90
19864;DHT22;10094;48.820;9.226;2022-07-01T06:58:06;16.10;99.90
19864;DHT22;10094;48.820;9.226;2022-07-01T07:04:49;16.20;99.90
19864;DHT22;10094;48.820;9.226;2022-07-01T07:11:41;16.30;99.90
19864;DHT22;10094;48.820;9.226;2022-07-01T07:18:24;16.30;99.90
19864;DHT22;10094;48.820;9.226;2022-07-01T07:25:07;16.50;99.90
19864;DHT22;10094;48.820;9.226;2022-07-01T07:31:50;16.70;99.90
19864;DHT22;10094;48.820;9.226;2022-07-01T07:38:32;16.60;99.90
19864;DHT22;10094;48.820;9.226;2022-07-01T07:45:15;16.70;99.90
19864;DHT22;10094;48.820;9.226;2022-07-01T07:52:02;16.50;99.90
19864;DHT22;10094;48.820;9.226;2022-07-01T07:58:44;16.70;99.90
19864;DHT22;10094;48.820;9.226;2022-07-01T08:05:27;16.70;99.90
19864;DHT22;10094;48.820;9.226;2022-07-01T08:12:09;16.30;99.90
19864;DHT22;10094;48.820;9.226;2022-07-01T08:18:51;16.30;99.90
19864;DHT22;10094;48.820;9.226;2022-07-01T08:25:34;16.50;99.90
19864;DHT22;10094;48.820;9.226;2022-07-01T08:32:17;16.30;99.90
19864;DHT22;10094;48.820;9.226;2022-07-01T08:39:01;16.40;99.90
19864;DHT22;10094;48.820;9.226;2022-07-01T08:45:44;16.60;99.90
19864;DHT22;10094;48.820;9.226;2022-07-01T08:52:28;16.90;99.90
19864;DHT22;10094;48.820;9.226;2022-07-01T08:59:25;17.10;99.90
19864;DHT22;10094;48.820;9.226;2022-07-01T09:06:15;16.70;99.90
19864;DHT22;10094;48.820;9.226;2022-07-01T09:13:04;16.50;99.90
19864;DHT22;10094;48.820;9.226;2022-07-01T09:19:49;16.60;99.90
19864;DHT22;10094;48.820;9.226;2022-07-01T09:26:32;16.20;99.90
19864;DHT22;10094;48.820;9.226;2022-07-01T09:33:17;16.10;99.90
19864;DHT22;10094;48.820;9.226;2022-07-01T09:40:00;16.10;99.90
19864;DHT22;10094;48.820;9.226;2022-07-01T09:46:56;16.40;99.90
19864;DHT22;10094;48.820;9.226;2022-07-01T09:53:40;16.50;99.90
19864;DHT22;10094;48.820;9.226;2022-07-01T10:00:23;16.10;99.90
19864;DHT22;10094;48.820;9.226;2022-07-01T10:14:16;16.50;99.90
19864;DHT22;10094;48.820;9.226;2022-07-01T10:20:59;16.80;99.90
19864;DHT22;10094;48.820;9.226;2022-07-01T10:27:43;17.70;99.90
19864;DHT22;10094;48.820;9.226;2022-07-01T10:34:34;18.10;99.90
19864;DHT22;10094;48.820;9.226;2022-07-01T10:41:31;18.30;99.90
19864;DHT22;10094;48.820;9.226;2022-07-01T10:48:22;19.20;99.90
19864;DHT22;10094;48.820;9.226;2022-07-01T10:55:07;20.00;99.90
19864;DHT22;10094;48.820;9.226;2022-07-01T11:01:50;21.10;98.00
19864;DHT22;10094;48.820;9.226;2022-07-01T11:08:32;21.20;96.60
19864;DHT22;10094;48.820;9.226;2022-07-01T11:15:15;21.30;96.90
19864;DHT22;10094;48.820;9.226;2022-07-01T11:21:59;21.30;95.50
19864;DHT22;10094;48.820;9.226;2022-07-01T11:28:43;21.20;95.70
19864;DHT22;10094;48.820;9.226;2022-07-01T11:35:28;21.10;96.90
19864;DHT22;10094;48.820;9.226;2022-07-01T11:42:29;20.90;96.10
19864;DHT22;10094;48.820;9.226;2022-07-01T11:49:12;21.20;95.10
19864;DHT22;10094;48.820;9.226;2022-07-01T11:55:55;21.20;94.60
19864;DHT22;10094;48.820;9.226;2022-07-01T12:02:39;21.90;95.20
19864;DHT22;10094;48.820;9.226;2022-07-01T12:09:23;22.60;93.30
19864;DHT22;10094;48.820;9.226;2022-07-01T12:16:09;22.00;93.20
19864;DHT22;10094;48.820;9.226;2022-07-01T12:22:52;21.70;93.80
19864;DHT22;10094;48.820;9.226;2022-07-01T12:36:22;21.10;94.40
19864;DHT22;10094;48.820;9.226;2022-07-01T12:43:29;21.60;94.10
19864;DHT22;10094;48.820;9.226;2022-07-01T12:57:02;22.10;93.70
19864;DHT22;10094;48.820;9.226;2022-07-01T13:03:48;22.20;93.70
19864;DHT22;10094;48.820;9.226;2022-07-01T13:10:32;22.40;93.50
19864;DHT22;10094;48.820;9.226;2022-07-01T13:17:30;22.90;93.00
19864;DHT22;10094;48.820;9.226;2022-07-01T13:24:25;22.00;93.80
19864;DHT22;10094;48.820;9.226;2022-07-01T13:31:16;22.70;92.80
19864;DHT22;10094;48.820;9.226;2022-07-01T13:37:58;23.00;93.10
19864;DHT22;10094;48.820;9.226;2022-07-01T13:44:41;22.20;93.90
19864;DHT22;10094;48.820;9.226;2022-07-01T13:51:24;21.60;94.10
19864;DHT22;10094;48.820;9.226;2022-07-01T13:58:09;21.40;95.20
19864;DHT22;10094;48.820;9.226;2022-07-01T14:04:51;21.50;95.10
19864;DHT22;10094;48.820;9.226;2022-07-01T14:11:34;21.70;94.70
19864;DHT22;10094;48.820;9.226;2022-07-01T14:18:16;21.90;93.80
19864;DHT22;10094;48.820;9.226;2022-07-01T14:24:59;22.30;93.80
19864;DHT22;10094;48.820;9.226;2022-07-01T14:31:42;21.60;93.70
19864;DHT22;10094;48.820;9.226;2022-07-01T14:38:25;21.50;94.60
19864;DHT22;10094;48.820;9.226;2022-07-01T14:45:08;21.30;95.10
19864;DHT22;10094;48.820;9.226;2022-07-01T14:51:51;21.50;95.00
19864;DHT22;10094;48.820;9.226;2022-07-01T14:58:33;21.70;94.40
19864;DHT22;10094;48.820;9.226;2022-07-01T15:05:16;20.90;95.30
19864;DHT22;10094;48.820;9.226;2022-07-01T15:11:59;21.00;95.50
19864;DHT22;10094;48.820;9.226;2022-07-01T15:18:41;21.10;95.20
19864;DHT22;10094;48.820;9.226;2022-07-01T15:25:24;21.50;94.30
19864;DHT22;10094;48.820;9.226;2022-07-01T15:32:09;21.40;94.20
19864;DHT22;10094;48.820;9.226;2022-07-01T15:38:54;21.40;93.80
19864;DHT22;10094;48.820;9.226;2022-07-01T15:45:41;21.90;93.80
19864;DHT22;10094;48.820;9.226;2022-07-01T15:52:23;21.40;94.00
19864;DHT22;10094;48.820;9.226;2022-07-01T15:59:06;21.10;94.20
19864;DHT22;10094;48.820;9.226;2022-07-01T16:05:51;21.20;94.60
19864;DHT22;10094;48.820;9.226;2022-07-01T16:12:34;21.40;94.30
19864;DHT22;10094;48.820;9.226;2022-07-01T16:19:17;21.60;93.80
19864;DHT22;10094;48.820;9.226;2022-07-01T16:26:02;21.90;93.20
19864;DHT22;10094;48.820;9.226;2022-07-01T16:32:46;22.10;93.10
19864;DHT22;10094;48.820;9.226;2022-07-01T16:39:30;21.70;93.40
19864;DHT22;10094;48.820;9.226;2022-07-01T16:46:18;21.40;94.60
19864;DHT22;10094;48.820;9.226;2022-07-01T16:53:06;21.80;93.50
19864;DHT22;10094;48.820;9.226;2022-07-01T16:59:53;21.90;93.50
19864;DHT22;10094;48.820;9.226;2022-07-01T17:06:38;21.50;93.10
19864;DHT22;10094;48.820;9.226;2022-07-01T17:13:21;21.20;93.50
19864;DHT22;10094;48.820;9.226;2022-07-01T17:20:07;21.50;93.30
19864;DHT22;10094;48.820;9.226;2022-07-01T17:27:07;21.30;93.50
19864;DHT22;10094;48.820;9.226;2022-07-01T17:33:52;21.10;93.40
19864;DHT22;10094;48.820;9.226;2022-07-01T17:40:41;21.30;93.80
19864;DHT22;10094;48.820;9.226;2022-07-01T17:47:25;21.20;93.40
19864;DHT22;10094;48.820;9.226;2022-07-01T17:54:12;21.30;93.10
19864;DHT22;10094;48.820;9.226;2022-07-01T18:00:56;21.20;93.70
19864;DHT22;10094;48.820;9.226;2022-07-01T18:07:40;21.20;93.90
19864;DHT22;10094;48.820;9.226;2022-07-01T18:21:44;21.00;94.00
19864;DHT22;10094;48.820;9.226;2022-07-01T18:28:35;20.80;94.00
19864;DHT22;10094;48.820;9.226;2022-07-01T18:35:19;20.70;94.10
19864;DHT22;10094;48.820;9.226;2022-07-01T18:42:06;20.80;94.30
19864;DHT22;10094;48.820;9.226;2022-07-01T18:48:49;20.60;94.40
19864;DHT22;10094;48.820;9.226;2022-07-01T18:55:34;20.60;94.90
19864;DHT22;10094;48.820;9.226;2022-07-01T19:02:18;20.60;94.80
19864;DHT22;10094;48.820;9.226;2022-07-01T19:09:02;20.30;95.00
19864;DHT22;10094;48.820;9.226;2022-07-01T19:15:45;20.20;95.70
19864;DHT22;10094;48.820;9.226;2022-07-01T19:22:30;19.80;97.30
19864;DHT22;10094;48.820;9.226;2022-07-01T19:29:13;20.50;98.20
19864;DHT22;10094;48.820;9.226;2022-07-01T19:35:57;19.50;99.10
19864;DHT22;10094;48.820;9.226;2022-07-01T19:42:42;19.30;99.10
19864;DHT22;10094;48.820;9.226;2022-07-01T19:49:25;19.20;99.90
19864;DHT22;10094;48.820;9.226;2022-07-01T19:56:07;18.90;99.90
19864;DHT22;10094;48.820;9.226;2022-07-01T20:02:49;18.70;99.90
19864;DHT22;10094;48.820;9.226;2022-07-01T20:09:32;18.60;99.90
19864;DHT22;10094;48.820;9.226;2022-07-01T20:16:16;18.40;99.90
19864;DHT22;10094;48.820;9.226;2022-07-01T20:22:58;18.20;99.90
19864;DHT22;10094;48.820;9.226;2022-07-01T20:29:42;18.20;99.90
19864;DHT22;10094;48.820;9.226;2022-07-01T20:36:26;18.70;99.90
19864;DHT22;10094;48.820;9.226;2022-07-01T20:43:18;17.70;99.90
19864;DHT22;10094;48.820;9.226;2022-07-01T20:50:02;17.90;99.90
19864;DHT22;10094;48.820;9.226;2022-07-01T20:56:45;17.60;99.90
19864;DHT22;10094;48.820;9.226;2022-07-01T21:03:29;17.50;99.90
19864;DHT22;10094;48.820;9.226;2022-07-01T21:10:11;17.40;99.90
19864;DHT22;10094;48.820;9.226;2022-07-01T21:16:54;17.30;99.90
19864;DHT22;10094;48.820;9.226;2022-07-01T21:23:37;17.10;99.90
19864;DHT22;10094;48.820;9.226;2022-07-01T21:30:20;17.90;99.90
19864;DHT22;10094;48.820;9.226;2022-07-01T21:37:05;16.90;99.90
19864;DHT22;10094;48.820;9.226;2022-07-01T21:43:50;16.90;99.90
19864;DHT22;10094;48.820;9.226;2022-07-01T21:50:34;16.70;99.90
19864;DHT22;10094;48.820;9.226;2022-07-01T21:57:18;15.60;99.90
19864;DHT22;10094;48.820;9.226;2022-07-01T22:04:02;17.90;99.90
19864;DHT22;10094;48.820;9.226;2022-07-01T22:10:46;16.40;99.90
19864;DHT22;10094;48.820;9.226;2022-07-01T22:17:29;16.40;99.90
19864;DHT22;10094;48.820;9.226;2022-07-01T22:24:15;16.20;99.90
19864;DHT22;10094;48.820;9.226;2022-07-01T22:31:00;16.20;99.90
19864;DHT22;10094;48.820;9.226;2022-07-01T22:37:45;16.10;99.90
19864;DHT22;10094;48.820;9.226;2022-07-01T22:44:37;15.90;99.90
19864;DHT22;10094;48.820;9.226;2022-07-01T22:58:53;16.00;99.90
19864;DHT22;10094;48.820;9.226;2022-07-01T23:05:47;15.90;99.90
19864;DHT22;10094;48.820;9.226;2022-07-01T23:19:30;15.90;99.90
19864;DHT22;10094;48.820;9.226;2022-07-01T23:26:13;15.70;99.90
19864;DHT22;10094;48.820;9.226;2022-07-01T23:32:56;15.60;99.90
19864;DHT22;10094;48.820;9.226;2022-07-01T23:39:41;15.60;99.90
19864;DHT22;10094;48.820;9.226;2022-07-01T23:46:25;15.40;99.90
19864;DHT22;10094;48.820;9.226;2022-07-01T23:53:07;15.50;99.90
19864;DHT22;10094;48.820;9.226;2022-07-01T23:59:50;15.40;99.90
